createdAt,value
2019-06-26T00:00:51.597Z,24.60
2019-06-26T00:03:21.667Z,24.60
2019-06-26T00:05:50.970Z,24.60
2019-06-26T00:08:20.331Z,24.70
2019-06-26T00:10:49.719Z,24.80
2019-06-26T00:13:26.331Z,24.70
2019-06-26T00:15:49.746Z,24.80
2019-06-26T00:18:19.289Z,24.80
2019-06-26T00:20:48.635Z,24.80
2019-06-26T00:23:17.967Z,24.80
2019-06-26T00:25:47.155Z,24.80
2019-06-26T00:28:17.482Z,24.60
2019-06-26T00:30:47.375Z,24.60
2019-06-26T00:33:16.656Z,24.60
2019-06-26T00:35:45.904Z,24.60
2019-06-26T00:38:15.460Z,24.60
2019-06-26T00:40:44.866Z,24.60
2019-06-26T00:43:14.004Z,24.60
2019-06-26T00:45:43.437Z,24.60
2019-06-26T00:48:13.731Z,24.60
2019-06-26T00:50:43.013Z,24.50
2019-06-26T00:53:12.802Z,24.50
2019-06-26T00:55:43.196Z,24.20
2019-06-26T00:58:12.893Z,24.20
2019-06-26T01:00:47.061Z,24.10
2019-06-26T01:03:16.583Z,24.10
2019-06-26T01:05:45.927Z,24.00
2019-06-26T01:08:15.458Z,23.90
2019-06-26T01:10:44.721Z,23.80
2019-06-26T01:13:14.477Z,23.70
2019-06-26T01:15:44.288Z,23.70
2019-06-26T01:18:14.076Z,23.60
2019-06-26T01:20:43.064Z,23.50
2019-06-26T01:23:12.614Z,23.40
2019-06-26T01:25:41.866Z,23.40
2019-06-26T01:28:11.378Z,23.40
2019-06-26T01:30:41.571Z,23.40
2019-06-26T01:33:11.720Z,23.40
2019-06-26T01:35:42.063Z,23.40
2019-06-26T01:38:11.492Z,23.40
2019-06-26T01:40:41.514Z,23.40
2019-06-26T01:43:11.680Z,23.30
2019-06-26T01:45:41.228Z,23.30
2019-06-26T01:48:10.923Z,23.30
2019-06-26T01:50:40.877Z,23.10
2019-06-26T01:53:11.170Z,23.00
2019-06-26T01:55:40.314Z,23.00
2019-06-26T01:58:10.005Z,22.90
2019-06-26T02:00:40.135Z,22.90
2019-06-26T02:03:09.812Z,22.90
2019-06-26T02:05:39.300Z,22.90
2019-06-26T02:08:08.998Z,22.80
2019-06-26T02:10:39.225Z,22.80
2019-06-26T02:13:09.012Z,22.90
2019-06-26T02:15:38.303Z,22.80
2019-06-26T02:18:08.241Z,22.70
2019-06-26T02:20:38.200Z,22.60
2019-06-26T02:23:09.101Z,22.60
2019-06-26T02:25:38.429Z,22.50
2019-06-26T02:28:07.948Z,22.40
2019-06-26T02:30:37.512Z,22.30
2019-06-26T02:33:07.966Z,22.20
2019-06-26T02:35:37.921Z,22.20
2019-06-26T02:38:10.495Z,22.20
2019-06-26T02:40:39.916Z,22.10
2019-06-26T02:43:09.537Z,22.10
2019-06-26T02:45:39.214Z,22.10
2019-06-26T02:48:08.893Z,22.00
2019-06-26T02:50:38.339Z,22.00
2019-06-26T02:53:12.827Z,22.00
2019-06-26T02:55:42.999Z,21.90
2019-06-26T02:58:19.804Z,21.80
2019-06-26T03:00:49.205Z,21.80
2019-06-26T03:03:18.599Z,21.80
2019-06-26T03:05:47.925Z,21.70
2019-06-26T03:08:17.193Z,21.80
2019-06-26T03:10:46.276Z,21.70
2019-06-26T03:13:16.665Z,21.70
2019-06-26T03:15:50.178Z,21.70
2019-06-26T03:18:17.297Z,21.70
2019-06-26T03:20:47.681Z,21.60
2019-06-26T03:23:17.234Z,21.60
2019-06-26T03:25:46.149Z,21.50
2019-06-26T03:28:15.523Z,21.40
2019-06-26T03:30:45.120Z,21.40
2019-06-26T03:33:14.531Z,21.40
2019-06-26T03:35:44.139Z,21.40
2019-06-26T03:38:14.358Z,21.30
2019-06-26T03:40:43.800Z,21.30
2019-06-26T03:43:13.180Z,21.30
2019-06-26T03:45:42.789Z,21.30
2019-06-26T03:48:12.256Z,21.20
2019-06-26T03:50:41.811Z,21.20
2019-06-26T03:53:10.800Z,21.10
2019-06-26T03:55:41.013Z,21.10
2019-06-26T03:58:10.223Z,21.00
2019-06-26T04:00:42.599Z,20.80
2019-06-26T04:03:11.981Z,20.80
2019-06-26T04:05:41.316Z,20.70
2019-06-26T04:08:15.880Z,20.70
2019-06-26T04:10:45.675Z,20.60
2019-06-26T04:13:15.212Z,20.60
2019-06-26T04:15:44.675Z,20.40
2019-06-26T04:18:13.964Z,20.40
2019-06-26T04:20:43.251Z,20.30
2019-06-26T04:23:12.827Z,20.20
2019-06-26T04:25:42.092Z,20.20
2019-06-26T04:28:11.472Z,20.20
2019-06-26T04:30:41.125Z,20.10
2019-06-26T04:33:10.622Z,20.00
2019-06-26T04:35:40.117Z,19.90
2019-06-26T04:38:09.479Z,19.90
2019-06-26T04:40:39.922Z,19.70
2019-06-26T04:43:09.391Z,19.70
2019-06-26T04:45:39.078Z,19.70
2019-06-26T04:48:08.341Z,19.60
2019-06-26T04:50:37.999Z,19.50
2019-06-26T04:53:07.557Z,19.50
2019-06-26T04:55:36.899Z,19.40
2019-06-26T04:58:06.742Z,19.40
2019-06-26T05:00:36.366Z,19.30
2019-06-26T05:03:05.894Z,19.20
2019-06-26T05:05:39.606Z,19.10
2019-06-26T05:08:04.915Z,19.00
2019-06-26T05:10:34.296Z,19.00
2019-06-26T05:13:03.648Z,18.90
2019-06-26T05:15:32.499Z,18.90
2019-06-26T05:18:02.808Z,18.90
2019-06-26T05:20:32.383Z,18.80
2019-06-26T05:23:03.160Z,18.80
2019-06-26T05:25:33.159Z,18.80
2019-06-26T05:28:02.680Z,18.80
2019-06-26T05:30:32.092Z,18.70
2019-06-26T05:33:01.558Z,18.60
2019-06-26T05:35:30.902Z,18.60
2019-06-26T05:38:00.342Z,18.60
2019-06-26T05:40:29.803Z,18.60
2019-06-26T05:43:00.184Z,18.50
2019-06-26T05:45:29.638Z,18.50
2019-06-26T05:47:59.213Z,18.40
2019-06-26T05:50:28.536Z,18.40
2019-06-26T05:52:58.335Z,18.30
2019-06-26T05:55:28.878Z,18.20
2019-06-26T05:57:58.316Z,18.20
2019-06-26T06:00:27.734Z,18.20
2019-06-26T06:02:57.101Z,18.20
2019-06-26T06:05:26.493Z,18.20
2019-06-26T06:07:55.740Z,18.10
2019-06-26T06:10:24.880Z,18.10
2019-06-26T06:12:54.385Z,18.10
2019-06-26T06:15:23.962Z,18.10
2019-06-26T06:17:53.274Z,18.10
2019-06-26T06:20:38.024Z,18.10
2019-06-26T06:23:07.830Z,18.00
2019-06-26T06:25:37.855Z,18.00
2019-06-26T06:28:07.574Z,17.90
2019-06-26T06:30:37.906Z,17.90
2019-06-26T06:33:07.441Z,17.90
2019-06-26T06:35:36.921Z,17.90
2019-06-26T06:38:06.224Z,17.90
2019-06-26T06:40:35.593Z,17.80
2019-06-26T06:43:04.946Z,17.90
2019-06-26T06:45:34.449Z,17.90
2019-06-26T06:48:03.814Z,17.90
2019-06-26T06:50:33.275Z,17.90
2019-06-26T06:53:02.589Z,17.80
2019-06-26T06:55:31.957Z,17.80
2019-06-26T06:58:01.499Z,17.80
2019-06-26T07:00:36.498Z,17.80
2019-06-26T07:03:06.229Z,17.60
2019-06-26T07:05:35.798Z,17.50
2019-06-26T07:08:05.318Z,17.50
2019-06-26T07:10:34.736Z,17.50
2019-06-26T07:13:04.288Z,17.50
2019-06-26T07:15:34.032Z,17.50
2019-06-26T07:18:03.597Z,17.50
2019-06-26T07:20:33.099Z,17.50
2019-06-26T07:23:02.520Z,17.50
2019-06-26T07:25:31.939Z,17.50
2019-06-26T07:28:02.308Z,17.50
2019-06-26T07:30:31.910Z,17.50
2019-06-26T07:33:01.214Z,17.50
2019-06-26T07:35:30.364Z,17.50
2019-06-26T07:38:00.856Z,17.50
2019-06-26T07:40:30.311Z,17.50
2019-06-26T07:42:59.785Z,17.50
2019-06-26T07:45:29.345Z,17.50
2019-06-26T07:47:58.817Z,17.50
2019-06-26T07:50:28.022Z,17.50
2019-06-26T07:52:58.301Z,17.40
2019-06-26T07:55:27.677Z,17.40
2019-06-26T07:57:57.182Z,17.50
2019-06-26T08:00:26.747Z,17.50
2019-06-26T08:02:57.389Z,17.40
2019-06-26T08:05:26.863Z,17.40
2019-06-26T08:07:56.314Z,17.40
2019-06-26T08:10:25.823Z,17.30
2019-06-26T08:12:55.253Z,17.30
2019-06-26T08:15:24.499Z,17.20
2019-06-26T08:18:00.530Z,17.20
2019-06-26T08:20:23.846Z,17.20
2019-06-26T08:22:53.305Z,17.10
2019-06-26T08:25:23.400Z,17.20
2019-06-26T08:27:52.898Z,17.20
2019-06-26T08:30:22.135Z,17.20
2019-06-26T08:32:51.379Z,17.20
2019-06-26T08:35:20.551Z,17.20
2019-06-26T08:37:49.834Z,17.20
2019-06-26T08:40:19.759Z,17.10
2019-06-26T08:42:49.243Z,17.20
2019-06-26T08:45:18.707Z,17.10
2019-06-26T08:47:48.037Z,17.20
2019-06-26T08:50:17.963Z,17.20
2019-06-26T08:52:47.349Z,17.20
2019-06-26T08:55:16.612Z,17.20
2019-06-26T08:57:46.238Z,17.20
2019-06-26T09:00:15.588Z,17.20
2019-06-26T09:02:44.765Z,17.10
2019-06-26T09:05:14.654Z,17.10
2019-06-26T09:07:44.348Z,17.10
2019-06-26T09:10:13.815Z,17.10
2019-06-26T09:12:43.143Z,17.10
2019-06-26T09:15:12.571Z,17.00
2019-06-26T09:17:41.938Z,17.00
2019-06-26T09:20:11.452Z,17.00
2019-06-26T09:22:40.571Z,17.10
2019-06-26T09:25:21.651Z,17.00
2019-06-26T09:27:40.283Z,17.00
2019-06-26T09:30:09.905Z,17.00
2019-06-26T09:32:39.391Z,17.00
2019-06-26T09:35:09.037Z,17.00
2019-06-26T09:37:38.362Z,17.00
2019-06-26T09:40:07.763Z,17.00
2019-06-26T09:42:37.218Z,17.00
2019-06-26T09:45:07.063Z,16.90
2019-06-26T09:47:36.106Z,16.90
2019-06-26T09:50:06.191Z,16.90
2019-06-26T09:52:35.956Z,16.90
2019-06-26T09:55:05.833Z,16.90
2019-06-26T09:57:35.327Z,16.90
2019-06-26T10:00:14.217Z,16.90
2019-06-26T10:02:43.756Z,16.90
2019-06-26T10:05:13.140Z,16.90
2019-06-26T10:07:43.965Z,16.90
2019-06-26T10:10:13.148Z,16.90
2019-06-26T10:12:42.760Z,16.90
2019-06-26T10:15:12.116Z,16.90
2019-06-26T10:17:41.401Z,16.90
2019-06-26T10:20:11.121Z,16.90
2019-06-26T10:22:40.132Z,16.90
2019-06-26T10:25:11.495Z,16.90
2019-06-26T10:27:39.209Z,16.90
2019-06-26T10:30:08.847Z,16.80
2019-06-26T10:32:38.036Z,16.90
2019-06-26T10:35:07.448Z,16.80
2019-06-26T10:37:37.097Z,16.80
2019-06-26T10:40:06.367Z,16.80
2019-06-26T10:42:35.876Z,16.80
2019-06-26T10:45:06.335Z,16.80
2019-06-26T10:47:39.431Z,16.80
2019-06-26T10:50:05.961Z,16.80
2019-06-26T10:52:35.440Z,16.80
2019-06-26T10:55:05.399Z,16.70
2019-06-26T10:57:35.052Z,16.70
2019-06-26T11:00:06.387Z,16.70
2019-06-26T11:02:35.716Z,16.70
2019-06-26T11:05:06.137Z,16.70
2019-06-26T11:07:36.569Z,16.70
2019-06-26T11:10:06.483Z,16.60
2019-06-26T11:12:36.060Z,16.40
2019-06-26T11:15:09.114Z,16.40
2019-06-26T11:17:38.574Z,16.30
2019-06-26T11:20:08.383Z,16.40
2019-06-26T11:22:37.998Z,16.30
2019-06-26T11:25:08.581Z,16.40
2019-06-26T11:27:38.430Z,16.40
2019-06-26T11:30:08.101Z,16.30
2019-06-26T11:32:37.829Z,16.30
2019-06-26T11:35:07.726Z,16.30
2019-06-26T11:37:37.066Z,16.30
2019-06-26T11:40:07.372Z,16.30
2019-06-26T11:42:39.656Z,16.30
2019-06-26T11:45:10.701Z,16.20
2019-06-26T11:47:40.354Z,16.10
2019-06-26T11:50:09.889Z,16.10
2019-06-26T11:52:39.422Z,16.10
2019-06-26T11:55:09.121Z,16.10
2019-06-26T11:57:39.779Z,16.00
2019-06-26T12:00:11.161Z,15.90
2019-06-26T12:02:40.387Z,15.90
2019-06-26T12:05:09.580Z,15.90
2019-06-26T12:07:38.889Z,15.90
2019-06-26T12:10:10.126Z,15.90
2019-06-26T12:12:39.644Z,15.90
2019-06-26T12:15:10.263Z,15.80
2019-06-26T12:17:39.835Z,15.80
2019-06-26T12:20:18.411Z,15.80
2019-06-26T12:22:39.027Z,15.80
2019-06-26T12:25:08.807Z,15.70
2019-06-26T12:27:37.992Z,15.70
2019-06-26T12:30:08.441Z,15.70
2019-06-26T12:32:42.119Z,15.70
2019-06-26T12:35:08.539Z,15.70
2019-06-26T12:37:38.418Z,15.70
2019-06-26T12:40:07.800Z,15.70
2019-06-26T12:42:36.971Z,15.70
2019-06-26T12:45:08.516Z,15.70
2019-06-26T12:47:37.881Z,15.70
2019-06-26T12:50:08.397Z,15.70
2019-06-26T12:52:38.135Z,15.70
2019-06-26T12:55:07.827Z,15.80
2019-06-26T12:57:37.328Z,15.80
2019-06-26T13:00:08.908Z,15.80
2019-06-26T13:02:38.335Z,15.80
2019-06-26T13:05:08.164Z,15.80
2019-06-26T13:07:37.498Z,15.80
2019-06-26T13:10:07.973Z,15.90
2019-06-26T13:12:37.309Z,15.90
2019-06-26T13:15:08.203Z,15.90
2019-06-26T13:17:37.717Z,15.90
2019-06-26T13:20:10.102Z,15.90
2019-06-26T13:22:37.971Z,15.90
2019-06-26T13:25:07.818Z,15.90
2019-06-26T13:27:37.231Z,15.90
2019-06-26T13:30:07.243Z,16.00
2019-06-26T13:32:36.676Z,16.10
2019-06-26T13:35:06.471Z,16.10
2019-06-26T13:37:35.858Z,16.20
2019-06-26T13:40:06.323Z,16.30
2019-06-26T13:42:35.954Z,16.30
2019-06-26T13:45:07.786Z,16.40
2019-06-26T13:47:37.357Z,16.40
2019-06-26T13:50:07.352Z,16.50
2019-06-26T13:52:36.926Z,16.50
2019-06-26T13:55:06.626Z,16.60
2019-06-26T13:57:36.056Z,16.70
2019-06-26T14:00:06.479Z,16.80
2019-06-26T14:02:35.918Z,16.90
2019-06-26T14:05:05.268Z,17.00
2019-06-26T14:07:34.737Z,17.10
2019-06-26T14:10:05.678Z,17.40
2019-06-26T14:12:35.447Z,17.40
2019-06-26T14:15:06.822Z,17.60
2019-06-26T14:17:36.246Z,17.70
2019-06-26T14:20:05.713Z,17.90
2019-06-26T14:22:35.140Z,18.00
2019-06-26T14:25:05.890Z,18.10
2019-06-26T14:27:35.210Z,18.10
2019-06-26T14:30:06.577Z,18.20
2019-06-26T14:32:35.811Z,18.30
2019-06-26T14:35:05.349Z,18.50
2019-06-26T14:37:34.715Z,18.50
2019-06-26T14:40:08.695Z,18.80
2019-06-26T14:42:37.994Z,18.80
2019-06-26T14:45:08.432Z,18.80
2019-06-26T14:47:38.854Z,18.80
2019-06-26T14:50:08.358Z,18.70
2019-06-26T14:52:38.011Z,18.80
2019-06-26T14:55:07.778Z,18.80
2019-06-26T14:57:37.138Z,18.90
2019-06-26T15:00:07.313Z,18.80
2019-06-26T15:02:36.651Z,18.80
2019-06-26T15:05:07.807Z,19.00
2019-06-26T15:07:37.684Z,19.00
2019-06-26T15:10:08.437Z,19.00
2019-06-26T15:12:39.167Z,19.00
2019-06-26T15:15:08.567Z,19.00
2019-06-26T15:17:38.872Z,19.20
2019-06-26T15:20:09.118Z,19.30
2019-06-26T15:22:38.469Z,19.40
2019-06-26T15:25:08.250Z,19.60
2019-06-26T15:27:38.596Z,19.90
2019-06-26T15:30:09.065Z,19.90
2019-06-26T15:32:38.429Z,20.10
2019-06-26T15:35:07.713Z,20.20
2019-06-26T15:37:37.011Z,20.30
2019-06-26T15:40:08.149Z,20.50
2019-06-26T15:42:37.830Z,20.80
2019-06-26T15:45:07.679Z,21.00
2019-06-26T15:47:37.374Z,21.10
2019-06-26T15:50:10.804Z,21.30
2019-06-26T15:52:38.051Z,21.40
2019-06-26T15:55:08.535Z,21.70
2019-06-26T15:57:38.733Z,21.80
2019-06-26T16:00:09.290Z,21.80
2019-06-26T16:02:39.425Z,21.70
2019-06-26T16:05:09.675Z,21.80
2019-06-26T16:07:39.182Z,21.80
2019-06-26T16:10:09.258Z,21.90
2019-06-26T16:12:38.586Z,22.10
2019-06-26T16:15:08.283Z,22.00
2019-06-26T16:17:37.974Z,22.00
2019-06-26T16:20:07.842Z,22.10
2019-06-26T16:22:37.300Z,22.40
2019-06-26T16:25:06.891Z,22.60
2019-06-26T16:27:36.022Z,22.60
2019-06-26T16:30:05.679Z,22.60
2019-06-26T16:32:35.123Z,22.70
2019-06-26T16:35:05.049Z,22.80
2019-06-26T16:37:34.530Z,23.00
2019-06-26T16:40:05.750Z,23.30
2019-06-26T16:42:35.102Z,23.30
2019-06-26T16:45:05.422Z,23.30
2019-06-26T16:47:34.994Z,23.20
2019-06-26T16:50:05.856Z,23.10
2019-06-26T16:52:48.387Z,23.20
2019-06-26T16:55:06.284Z,23.30
2019-06-26T16:57:35.919Z,23.50
2019-06-26T17:00:09.989Z,23.50
2019-06-26T17:02:35.916Z,23.50
2019-06-26T17:05:05.866Z,23.60
2019-06-26T17:07:35.050Z,23.70
2019-06-26T17:10:06.426Z,24.40
2019-06-26T17:12:35.724Z,24.40
2019-06-26T17:15:05.343Z,24.60
2019-06-26T17:17:35.564Z,24.80
2019-06-26T17:20:05.383Z,24.40
2019-06-26T17:22:34.430Z,24.30
2019-06-26T17:25:04.161Z,24.20
2019-06-26T17:27:34.147Z,25.40
2019-06-26T17:30:03.448Z,25.30
2019-06-26T17:32:32.954Z,26.10
2019-06-26T17:35:02.503Z,26.10
2019-06-26T17:37:32.097Z,25.90
2019-06-26T17:40:01.400Z,26.20
2019-06-26T17:42:30.687Z,26.50
2019-06-26T17:45:00.113Z,26.40
2019-06-26T17:47:29.560Z,26.30
2019-06-26T17:49:58.644Z,26.60
2019-06-26T17:52:28.120Z,26.90
2019-06-26T17:54:57.566Z,29.10
2019-06-26T17:57:26.987Z,32.80
2019-06-26T17:59:56.429Z,37.10
2019-06-26T18:02:25.938Z,40.30
2019-06-26T18:04:55.656Z,43.00
2019-06-26T18:07:24.985Z,44.20
2019-06-26T18:09:54.757Z,45.80
2019-06-26T18:12:24.292Z,47.10
2019-06-26T18:14:53.418Z,47.70
2019-06-26T18:17:22.881Z,47.50
2019-06-26T18:19:53.912Z,47.20
2019-06-26T18:22:22.573Z,46.50
2019-06-26T18:24:52.801Z,46.60
2019-06-26T18:27:21.972Z,46.70
2019-06-26T18:29:52.214Z,42.90
2019-06-26T18:32:21.570Z,42.80
2019-06-26T18:34:51.087Z,40.00
2019-06-26T18:37:20.426Z,37.40
2019-06-26T18:39:49.702Z,35.70
2019-06-26T18:42:19.150Z,34.50
2019-06-26T18:44:48.399Z,33.80
2019-06-26T18:47:17.794Z,33.20
2019-06-26T18:49:47.119Z,32.70
2019-06-26T18:52:16.908Z,32.30
2019-06-26T18:54:46.295Z,32.20
2019-06-26T18:57:15.714Z,31.60
2019-06-26T18:59:44.857Z,31.30
2019-06-26T19:02:14.159Z,31.20
2019-06-26T19:04:43.758Z,30.90
2019-06-26T19:07:13.249Z,30.80
2019-06-26T19:09:42.738Z,30.60
2019-06-26T19:12:12.078Z,30.70
2019-06-26T19:14:41.466Z,30.50
2019-06-26T19:17:11.062Z,30.30
2019-06-26T19:19:40.380Z,30.40
2019-06-26T19:22:09.960Z,30.30
2019-06-26T19:24:45.785Z,30.40
2019-06-26T19:27:15.296Z,30.50
2019-06-26T19:29:44.613Z,30.60
2019-06-26T19:32:13.862Z,30.70
2019-06-26T19:34:43.255Z,30.70
2019-06-26T19:37:12.833Z,30.60
2019-06-26T19:39:42.116Z,30.60
2019-06-26T19:42:11.371Z,30.60
2019-06-26T19:44:40.636Z,30.40
2019-06-26T19:47:11.024Z,29.90
2019-06-26T19:49:40.610Z,29.80
2019-06-26T19:52:10.161Z,29.70
2019-06-26T19:54:39.434Z,29.70
2019-06-26T19:57:08.781Z,28.90
2019-06-26T19:59:37.894Z,27.90
2019-06-26T20:02:07.286Z,27.50
2019-06-26T20:04:37.566Z,27.70
2019-06-26T20:07:06.929Z,27.70
2019-06-26T20:09:36.506Z,28.10
2019-06-26T20:12:05.911Z,28.20
2019-06-26T20:14:35.157Z,28.30
2019-06-26T20:17:04.770Z,28.10
2019-06-26T20:19:34.140Z,28.20
2019-06-26T20:22:03.730Z,28.30
2019-06-26T20:24:43.360Z,28.30
2019-06-26T20:27:02.745Z,28.30
2019-06-26T20:29:32.076Z,28.20
2019-06-26T20:32:01.656Z,28.50
2019-06-26T20:34:32.037Z,28.30
2019-06-26T20:37:01.386Z,28.30
2019-06-26T20:39:31.024Z,28.20
2019-06-26T20:42:00.543Z,28.20
2019-06-26T20:44:29.941Z,28.00
2019-06-26T20:46:59.389Z,27.90
2019-06-26T20:49:28.719Z,27.70
2019-06-26T20:51:58.238Z,27.50
2019-06-26T20:54:27.673Z,27.40
2019-06-26T20:56:56.794Z,27.40
2019-06-26T20:59:26.221Z,27.30
2019-06-26T21:01:55.851Z,27.10
2019-06-26T21:04:24.994Z,27.10
2019-06-26T21:06:54.404Z,27.10
2019-06-26T21:09:23.924Z,26.90
2019-06-26T21:11:53.330Z,26.80
2019-06-26T21:14:22.486Z,26.80
2019-06-26T21:16:51.895Z,26.60
2019-06-26T21:19:21.026Z,26.60
2019-06-26T21:21:50.336Z,26.70
2019-06-26T21:24:19.971Z,26.60
2019-06-26T21:26:50.637Z,26.50
2019-06-26T21:29:20.117Z,26.40
2019-06-26T21:31:49.512Z,26.30
2019-06-26T21:34:18.897Z,26.30
2019-06-26T21:36:48.180Z,26.30
2019-06-26T21:39:17.383Z,26.30
2019-06-26T21:41:47.433Z,26.20
2019-06-26T21:44:16.578Z,26.20
2019-06-26T21:46:45.797Z,26.10
2019-06-26T21:49:15.263Z,26.00
2019-06-26T21:51:44.619Z,26.00
2019-06-26T21:54:13.908Z,26.10
2019-06-26T21:56:43.593Z,26.00
2019-06-26T21:59:14.232Z,26.00
2019-06-26T22:01:43.602Z,26.10
2019-06-26T22:04:13.023Z,26.10
2019-06-26T22:06:42.785Z,26.10
2019-06-26T22:09:12.389Z,26.10
2019-06-26T22:11:42.781Z,26.00
2019-06-26T22:14:12.097Z,26.00
2019-06-26T22:16:42.759Z,26.00
2019-06-26T22:19:11.792Z,25.90
2019-06-26T22:21:41.103Z,25.80
2019-06-26T22:24:10.307Z,25.90
2019-06-26T22:26:39.855Z,25.90
2019-06-26T22:29:09.454Z,25.90
2019-06-26T22:31:38.608Z,25.90
2019-06-26T22:34:07.918Z,25.80
2019-06-26T22:36:38.152Z,25.80
2019-06-26T22:39:07.781Z,25.80
2019-06-26T22:41:37.011Z,25.90
2019-06-26T22:44:06.221Z,26.00
2019-06-26T22:46:35.814Z,26.10
2019-06-26T22:49:05.297Z,26.10
2019-06-26T22:51:34.841Z,26.30
2019-06-26T22:54:04.488Z,26.30
2019-06-26T22:56:34.003Z,26.40
2019-06-26T22:59:04.325Z,26.50
2019-06-26T23:01:33.965Z,26.50
2019-06-26T23:04:03.177Z,26.50
2019-06-26T23:06:32.409Z,26.50
2019-06-26T23:09:01.831Z,26.40
2019-06-26T23:11:31.350Z,26.40
2019-06-26T23:14:00.767Z,26.40
2019-06-26T23:16:30.403Z,26.20
2019-06-26T23:18:59.984Z,26.30
2019-06-26T23:21:30.396Z,26.30
2019-06-26T23:23:59.615Z,26.30
2019-06-26T23:26:29.753Z,26.30
2019-06-26T23:28:59.237Z,26.20
2019-06-26T23:31:28.724Z,26.00
2019-06-26T23:33:58.097Z,25.90
2019-06-26T23:36:27.606Z,26.00
2019-06-26T23:38:56.782Z,26.10
2019-06-26T23:41:26.129Z,25.90
2019-06-26T23:43:55.821Z,26.00
2019-06-26T23:46:25.270Z,26.00
2019-06-26T23:48:54.468Z,26.00
2019-06-26T23:51:23.930Z,25.90
2019-06-26T23:53:53.443Z,25.70
2019-06-26T23:56:39.276Z,25.70
2019-06-26T23:58:53.498Z,25.60
